Time;durP1;ratioP1;P1;durP2;ratioP2;P2;SDS_P1;SDS_P2;PMS_P1;PMS_P2;Temp;Humidity;BMP_temperature;BMP_pressure;BME280_temperature;BME280_humidity;BME280_pressure;Samples;Min_cycle;Max_cycle;Signal;HPM_P1;HPM_P2
2023/05/18 00:00:43;;;;;;;12.73;11.98;;;;;;;;;;4994945;28;20048;-52
2023/05/18 00:03:09;;;;;;;12.32;11.63;;;;;;;;;;4996090;28;20046;-53
2023/05/18 00:05:35;;;;;;;14.35;13.13;;;;;;;;;;4993997;28;20030;-51
2023/05/18 00:08:01;;;;;;;12.05;11.25;;;;;;;;;;4996119;28;20041;-50
2023/05/18 00:10:26;;;;;;;12.27;11.55;;;;;;;;;;4995631;28;20431;-51
2023/05/18 00:12:52;;;;;;;11.80;11.10;;;;;;;;;;4999577;28;20041;-54
2023/05/18 00:15:17;;;;;;;12.98;12.23;;;;;;;;;;4999906;28;20037;-50
2023/05/18 00:17:44;;;;;;;13.80;13.00;;;;;;;;;;4994806;28;20146;-53
2023/05/18 00:20:10;;;;;;;12.75;12.05;;;;;;;;;;4994657;28;20082;-52
2023/05/18 00:22:35;;;;;;;12.82;12.02;;;;;;;;;;4995839;28;20041;-52
2023/05/18 00:25:01;;;;;;;12.65;11.90;;;;;;;;;;4995480;28;20041;-52
2023/05/18 00:27:26;;;;;;;12.48;11.77;;;;;;;;;;4997499;28;20061;-51
2023/05/18 00:29:51;;;;;;;12.52;11.82;;;;;;;;;;4999049;28;20077;-53
2023/05/18 00:32:17;;;;;;;11.45;10.75;;;;;;;;;;4993053;28;20034;-52
2023/05/18 00:34:42;;;;;;;12.90;12.00;;;;;;;;;;4992924;28;20377;-51
2023/05/18 00:37:07;;;;;;;12.05;11.35;;;;;;;;;;4997011;28;20431;-53
2023/05/18 00:39:33;;;;;;;11.90;11.20;;;;;;;;;;4998452;28;20053;-52
2023/05/18 00:41:58;;;;;;;12.10;11.40;;;;;;;;;;4995163;28;20456;-53
2023/05/18 00:44:24;;;;;;;12.25;11.45;;;;;;;;;;4998432;28;20030;-50
2023/05/18 00:46:49;;;;;;;12.13;11.40;;;;;;;;;;4993352;28;20041;-53
2023/05/18 00:49:15;;;;;;;12.25;11.55;;;;;;;;;;4998755;28;20184;-53
2023/05/18 00:51:40;;;;;;;11.88;11.18;;;;;;;;;;4997390;28;20088;-60
2023/05/18 00:54:06;;;;;;;12.00;11.25;;;;;;;;;;4997447;28;20257;-61
2023/05/18 00:56:33;;;;;;;12.98;12.23;;;;;;;;;;4996352;28;20072;-55
2023/05/18 00:59:00;;;;;;;12.75;11.95;;;;;;;;;;4992936;28;20037;-53
2023/05/18 01:01:27;;;;;;;12.65;11.95;;;;;;;;;;4998303;28;20034;-51
2023/05/18 01:04:02;;;;;;;13.30;12.40;;;;;;;;;;4996495;28;20049;-52
2023/05/18 01:06:34;;;;;;;13.00;12.10;;;;;;;;;;4996696;28;20042;-51
2023/05/18 01:09:02;;;;;;;13.57;12.73;;;;;;;;;;4994645;28;20046;-53
2023/05/18 01:11:42;;;;;;;11.77;11.07;;;;;;;;;;4995712;28;20041;-54
2023/05/18 01:14:19;;;;;;;13.13;12.32;;;;;;;;;;4997137;28;20136;-53
2023/05/18 01:16:53;;;;;;;12.38;11.65;;;;;;;;;;4996819;28;20082;-59
2023/05/18 01:20:05;;;;;;;12.88;12.07;;;;;;;;;;4997242;28;20512;-60
2023/05/18 01:22:50;;;;;;;12.77;11.98;;;;;;;;;;4901053;29;20071;-53
2023/05/18 01:25:47;;;;;;;13.13;12.38;;;;;;;;;;4998685;28;20507;-60
2023/05/18 01:28:16;;;;;;;12.50;11.77;;;;;;;;;;4995688;28;20049;-60
2023/05/18 01:30:41;;;;;;;11.88;11.18;;;;;;;;;;4995844;28;20025;-60
2023/05/18 01:33:08;;;;;;;13.10;12.30;;;;;;;;;;4994271;28;20048;-52
2023/05/18 01:35:35;;;;;;;14.00;13.20;;;;;;;;;;4996350;28;20143;-52
2023/05/18 01:38:01;;;;;;;12.70;12.00;;;;;;;;;;4995505;28;20171;-53
2023/05/18 01:40:32;;;;;;;14.50;13.60;;;;;;;;;;4998112;28;20477;-54
2023/05/18 01:43:07;;;;;;;12.07;11.38;;;;;;;;;;4994871;28;20034;-62
2023/05/18 01:45:34;;;;;;;12.48;11.77;;;;;;;;;;4995551;28;20037;-60
2023/05/18 01:48:01;;;;;;;12.63;11.93;;;;;;;;;;4994861;28;20116;-52
2023/05/18 01:50:37;;;;;;;12.85;12.13;;;;;;;;;;4996191;28;20495;-60
2023/05/18 01:53:09;;;;;;;12.75;11.95;;;;;;;;;;4994647;28;20103;-60
2023/05/18 01:55:35;;;;;;;13.40;12.50;;;;;;;;;;4991332;28;21808;-60
2023/05/18 01:58:01;;;;;;;13.00;12.20;;;;;;;;;;4993064;28;20546;-60
2023/05/18 02:00:27;;;;;;;12.60;11.85;;;;;;;;;;4993035;28;20528;-60
2023/05/18 02:02:52;;;;;;;14.20;13.40;;;;;;;;;;4977158;28;20049;-59
2023/05/18 02:05:18;;;;;;;14.02;13.13;;;;;;;;;;4995797;28;20041;-60
2023/05/18 02:07:46;;;;;;;12.93;12.18;;;;;;;;;;4996159;28;20037;-60
2023/05/18 02:10:11;;;;;;;13.98;13.18;;;;;;;;;;4999691;28;20030;-60
2023/05/18 02:12:37;;;;;;;13.93;13.05;;;;;;;;;;4999305;28;20356;-60
2023/05/18 02:15:04;;;;;;;13.10;12.30;;;;;;;;;;4991580;28;20388;-60
2023/05/18 02:17:33;;;;;;;11.80;11.10;;;;;;;;;;4999979;28;20040;-60
2023/05/18 02:19:58;;;;;;;12.90;12.18;;;;;;;;;;4998153;28;20054;-60
2023/05/18 02:22:23;;;;;;;13.27;12.38;;;;;;;;;;5003861;28;20775;-60
2023/05/18 02:24:49;;;;;;;13.00;12.20;;;;;;;;;;5000958;28;20100;-60
2023/05/18 02:27:15;;;;;;;13.60;12.80;;;;;;;;;;4998057;28;20169;-60
2023/05/18 02:29:40;;;;;;;12.73;12.00;;;;;;;;;;4982416;28;20030;-60
2023/05/18 02:32:06;;;;;;;12.35;11.35;;;;;;;;;;4997617;28;20030;-60
2023/05/18 02:34:32;;;;;;;11.75;11.05;;;;;;;;;;4998222;28;20371;-60
2023/05/18 02:37:02;;;;;;;13.63;12.82;;;;;;;;;;4999223;28;20095;-60
2023/05/18 02:39:27;;;;;;;13.02;12.18;;;;;;;;;;4999610;28;20084;-60
2023/05/18 02:41:53;;;;;;;12.30;11.57;;;;;;;;;;4997939;28;20038;-60
2023/05/18 02:44:18;;;;;;;12.10;11.40;;;;;;;;;;4995569;28;20121;-60
2023/05/18 02:46:43;;;;;;;31.55;12.00;;;;;;;;;;5002981;28;20054;-60
2023/05/18 02:49:09;;;;;;;10.85;10.20;;;;;;;;;;4998474;28;20040;-60
2023/05/18 02:51:34;;;;;;;11.40;10.70;;;;;;;;;;5003478;28;20034;-60
2023/05/18 02:54:00;;;;;;;11.85;11.02;;;;;;;;;;4999631;28;20065;-60
2023/05/18 02:56:27;;;;;;;12.15;11.43;;;;;;;;;;4995224;28;20048;-60
2023/05/18 02:58:56;;;;;;;12.15;11.45;;;;;;;;;;4976080;28;20040;-60
2023/05/18 03:01:25;;;;;;;10.40;9.77;;;;;;;;;;4999925;28;20038;-59
2023/05/18 03:04:00;;;;;;;32.47;12.30;;;;;;;;;;4997997;28;20048;-60
2023/05/18 03:06:26;;;;;;;10.50;9.85;;;;;;;;;;4997364;28;20317;-60
2023/05/18 03:08:54;;;;;;;11.98;11.27;;;;;;;;;;4995149;28;20030;-60
2023/05/18 03:11:23;;;;;;;11.93;10.88;;;;;;;;;;4996844;28;20022;-60
2023/05/18 03:13:49;;;;;;;11.52;10.82;;;;;;;;;;4997479;28;20030;-60
2023/05/18 03:16:14;;;;;;;10.98;10.30;;;;;;;;;;5001534;28;20487;-60
2023/05/18 03:18:40;;;;;;;10.43;9.77;;;;;;;;;;4995060;28;20104;-60
2023/05/18 03:21:06;;;;;;;11.63;10.75;;;;;;;;;;4997724;28;20041;-60
2023/05/18 03:23:32;;;;;;;9.70;9.10;;;;;;;;;;4999344;28;20140;-60
2023/05/18 03:26:02;;;;;;;10.35;9.75;;;;;;;;;;4998205;28;20047;-60
2023/05/18 03:28:28;;;;;;;10.88;10.18;;;;;;;;;;5000798;28;20077;-60
2023/05/18 03:30:54;;;;;;;10.23;9.63;;;;;;;;;;4997003;28;20408;-51
2023/05/18 03:33:19;;;;;;;11.48;10.40;;;;;;;;;;4996260;28;20037;-51
2023/05/18 03:35:45;;;;;;;11.07;10.38;;;;;;;;;;4977847;28;20045;-50
2023/05/18 03:38:10;;;;;;;11.02;10.32;;;;;;;;;;4995713;28;20460;-51
2023/05/18 03:40:36;;;;;;;11.38;10.50;;;;;;;;;;4996491;28;20112;-49
2023/05/18 03:43:01;;;;;;;24.13;10.13;;;;;;;;;;4996096;28;20149;-51
2023/05/18 03:45:26;;;;;;;10.25;9.55;;;;;;;;;;4997188;28;20060;-53
2023/05/18 03:47:52;;;;;;;9.43;8.82;;;;;;;;;;4994871;28;20033;-49
2023/05/18 03:50:17;;;;;;;9.85;9.25;;;;;;;;;;4999321;28;20026;-60
2023/05/18 03:52:43;;;;;;;10.50;9.85;;;;;;;;;;4993893;28;20038;-60
2023/05/18 03:55:10;;;;;;;10.10;9.50;;;;;;;;;;4996088;28;20038;-60
2023/05/18 03:57:35;;;;;;;10.68;9.98;;;;;;;;;;4996368;28;20034;-60
2023/05/18 04:00:11;;;;;;;9.23;8.63;;;;;;;;;;4997617;28;20167;-50
2023/05/18 04:02:37;;;;;;;9.95;9.32;;;;;;;;;;4980888;28;20052;-60
2023/05/18 04:05:02;;;;;;;9.52;8.93;;;;;;;;;;4996501;28;20349;-61
2023/05/18 04:07:28;;;;;;;9.23;8.63;;;;;;;;;;4992994;28;20502;-60
2023/05/18 04:09:54;;;;;;;9.57;8.93;;;;;;;;;;4994251;28;20122;-60
2023/05/18 04:12:20;;;;;;;15.40;9.30;;;;;;;;;;4996973;28;20038;-60
2023/05/18 04:14:48;;;;;;;10.00;9.30;;;;;;;;;;4996421;28;20038;-60
2023/05/18 04:17:21;;;;;;;8.98;8.38;;;;;;;;;;4983000;28;20080;-60
2023/05/18 04:19:47;;;;;;;10.48;9.77;;;;;;;;;;4975207;28;20036;-60
2023/05/18 04:22:12;;;;;;;9.93;9.07;;;;;;;;;;4998540;28;20034;-60
2023/05/18 04:24:40;;;;;;;9.65;9.02;;;;;;;;;;4992749;28;20038;-60
2023/05/18 04:27:05;;;;;;;10.30;9.50;;;;;;;;;;4994895;28;20416;-60
2023/05/18 04:29:31;;;;;;;8.82;8.23;;;;;;;;;;4994385;28;20026;-60
2023/05/18 04:31:59;;;;;;;9.70;9.10;;;;;;;;;;4995419;28;20052;-60
2023/05/18 04:34:28;;;;;;;11.27;10.32;;;;;;;;;;4997871;28;20118;-53
2023/05/18 04:36:57;;;;;;;9.45;8.85;;;;;;;;;;4999005;28;20166;-52
2023/05/18 04:39:23;;;;;;;8.80;8.23;;;;;;;;;;4978957;28;20113;-53
2023/05/18 04:41:57;;;;;;;10.02;9.32;;;;;;;;;;4997575;28;20038;-50
2023/05/18 04:44:28;;;;;;;9.00;8.40;;;;;;;;;;4997886;28;20036;-54
2023/05/18 04:46:54;;;;;;;8.93;8.32;;;;;;;;;;4994748;28;20103;-54
2023/05/18 04:49:24;;;;;;;8.80;8.20;;;;;;;;;;4997187;28;20165;-49
2023/05/18 04:51:54;;;;;;;8.80;8.20;;;;;;;;;;4996772;28;20049;-50
2023/05/18 04:54:27;;;;;;;9.45;8.85;;;;;;;;;;4994297;28;20034;-53
2023/05/18 04:56:52;;;;;;;9.75;9.15;;;;;;;;;;4994365;28;20046;-52
2023/05/18 04:59:18;;;;;;;9.48;8.88;;;;;;;;;;4997018;28;20488;-51
2023/05/18 05:01:44;;;;;;;8.57;8.05;;;;;;;;;;4997118;28;20396;-51
2023/05/18 05:04:09;;;;;;;10.50;9.77;;;;;;;;;;4997552;28;20046;-50
2023/05/18 05:06:35;;;;;;;9.55;8.93;;;;;;;;;;4994457;28;20034;-51
2023/05/18 05:09:00;;;;;;;11.27;10.57;;;;;;;;;;4997537;28;20033;-60
2023/05/18 05:11:25;;;;;;;9.13;8.52;;;;;;;;;;4996700;28;20029;-53
2023/05/18 05:13:51;;;;;;;9.30;8.70;;;;;;;;;;4993825;28;20053;-53
2023/05/18 05:16:16;;;;;;;9.77;9.10;;;;;;;;;;4998202;28;20514;-49
2023/05/18 05:18:42;;;;;;;11.82;10.90;;;;;;;;;;4997492;28;20036;-54
2023/05/18 05:21:08;;;;;;;10.40;9.70;;;;;;;;;;4999018;28;20471;-54
2023/05/18 05:23:34;;;;;;;8.93;8.32;;;;;;;;;;4995654;28;20059;-54
2023/05/18 05:25:59;;;;;;;10.45;9.65;;;;;;;;;;4974746;28;20037;-52
2023/05/18 05:28:25;;;;;;;9.18;8.57;;;;;;;;;;4998716;28;20037;-53
2023/05/18 05:30:50;;;;;;;10.45;9.65;;;;;;;;;;4995825;28;20037;-54
2023/05/18 05:33:16;;;;;;;9.57;8.98;;;;;;;;;;4996606;28;20048;-53
2023/05/18 05:35:42;;;;;;;9.63;9.02;;;;;;;;;;4992192;28;20113;-50
2023/05/18 05:38:07;;;;;;;11.40;10.70;;;;;;;;;;4999910;28;20121;-51
2023/05/18 05:40:33;;;;;;;11.25;10.55;;;;;;;;;;4994971;28;20038;-54
2023/05/18 05:42:58;;;;;;;11.35;10.63;;;;;;;;;;4998474;28;20065;-52
2023/05/18 05:45:23;;;;;;;11.68;10.98;;;;;;;;;;5001450;28;20064;-54
2023/05/18 05:47:49;;;;;;;11.63;10.93;;;;;;;;;;4984061;28;20475;-50
2023/05/18 05:50:14;;;;;;;12.80;12.05;;;;;;;;;;5000283;28;20032;-49
2023/05/18 05:52:40;;;;;;;12.02;11.27;;;;;;;;;;5003286;28;20373;-54
2023/05/18 05:55:06;;;;;;;11.45;10.65;;;;;;;;;;4999331;28;20027;-51
2023/05/18 05:57:31;;;;;;;12.73;11.85;;;;;;;;;;4999296;28;20034;-53
2023/05/18 05:59:56;;;;;;;12.00;11.30;;;;;;;;;;4996182;28;21412;-53
2023/05/18 06:02:22;;;;;;;13.90;13.10;;;;;;;;;;5001543;28;20633;-53
2023/05/18 06:04:47;;;;;;;12.30;11.55;;;;;;;;;;4997349;28;20038;-52
2023/05/18 06:07:12;;;;;;;11.85;11.15;;;;;;;;;;4997139;28;20038;-55
2023/05/18 06:09:38;;;;;;;12.35;11.55;;;;;;;;;;4995708;28;20880;-52
2023/05/18 06:12:04;;;;;;;11.77;11.07;;;;;;;;;;4997163;28;20099;-50
2023/05/18 06:14:29;;;;;;;12.63;11.68;;;;;;;;;;4999621;28;20100;-55
2023/05/18 06:16:54;;;;;;;12.00;11.23;;;;;;;;;;4995523;28;20053;-54
2023/05/18 06:19:20;;;;;;;12.88;12.07;;;;;;;;;;4996317;28;20117;-53
2023/05/18 06:21:45;;;;;;;11.35;10.65;;;;;;;;;;4987360;28;20046;-52
2023/05/18 06:24:10;;;;;;;12.38;11.43;;;;;;;;;;5001880;28;20041;-49
2023/05/18 06:26:36;;;;;;;11.40;10.65;;;;;;;;;;4997270;28;20188;-52
2023/05/18 06:29:01;;;;;;;10.48;9.88;;;;;;;;;;4996505;28;20065;-51
2023/05/18 06:31:27;;;;;;;10.90;10.20;;;;;;;;;;4999707;28;20092;-53
2023/05/18 06:33:52;;;;;;;10.68;9.98;;;;;;;;;;4996899;28;20088;-55
2023/05/18 06:36:18;;;;;;;11.73;11.02;;;;;;;;;;4999971;28;20041;-54
2023/05/18 06:38:43;;;;;;;10.55;9.95;;;;;;;;;;5000466;28;20033;-53
2023/05/18 06:41:08;;;;;;;11.15;10.35;;;;;;;;;;4998414;28;20565;-51
2023/05/18 06:43:34;;;;;;;12.30;11.50;;;;;;;;;;4998032;28;20053;-53
2023/05/18 06:45:59;;;;;;;10.65;10.05;;;;;;;;;;4996277;28;20129;-54
2023/05/18 06:48:26;;;;;;;12.05;11.25;;;;;;;;;;5000430;28;20033;-53
2023/05/18 06:50:52;;;;;;;12.07;11.27;;;;;;;;;;4998206;28;20062;-53
2023/05/18 06:53:18;;;;;;;13.38;12.57;;;;;;;;;;4994598;28;20038;-55
2023/05/18 06:55:43;;;;;;;14.27;13.48;;;;;;;;;;4997602;28;20034;-52
2023/05/18 06:58:08;;;;;;;15.68;14.77;;;;;;;;;;5000997;28;20021;-53
2023/05/18 07:00:34;;;;;;;14.98;14.10;;;;;;;;;;5000871;28;20023;-52
2023/05/18 07:03:00;;;;;;;14.23;13.32;;;;;;;;;;4998387;28;20092;-53
2023/05/18 07:05:26;;;;;;;13.52;12.73;;;;;;;;;;4995511;28;20038;-54
2023/05/18 07:07:51;;;;;;;14.48;13.65;;;;;;;;;;5000330;28;20034;-54
2023/05/18 07:10:17;;;;;;;14.93;13.82;;;;;;;;;;4998361;28;20407;-52
2023/05/18 07:12:42;;;;;;;14.20;13.40;;;;;;;;;;4999342;28;20064;-53
2023/05/18 07:15:10;;;;;;;13.57;12.55;;;;;;;;;;4996279;28;20062;-54
2023/05/18 07:17:36;;;;;;;14.77;13.90;;;;;;;;;;4996579;28;20432;-54
2023/05/18 07:20:04;;;;;;;11.95;11.15;;;;;;;;;;4997730;28;20025;-54
2023/05/18 07:22:29;;;;;;;11.98;11.27;;;;;;;;;;4999545;28;20033;-54
2023/05/18 07:24:55;;;;;;;12.88;11.85;;;;;;;;;;4997027;28;20038;-54
2023/05/18 07:27:20;;;;;;;13.27;12.48;;;;;;;;;;4998421;28;20507;-52
2023/05/18 07:29:45;;;;;;;11.70;11.00;;;;;;;;;;4998833;28;20057;-50
2023/05/18 07:32:11;;;;;;;13.20;12.40;;;;;;;;;;5002223;28;20433;-52
2023/05/18 07:34:36;;;;;;;12.85;12.10;;;;;;;;;;5002907;28;20031;-54
2023/05/18 07:37:02;;;;;;;12.57;11.20;;;;;;;;;;5000246;28;20452;-55
2023/05/18 07:39:28;;;;;;;11.43;10.73;;;;;;;;;;4997608;28;20531;-53
2023/05/18 07:41:56;;;;;;;11.98;11.27;;;;;;;;;;4992949;28;20046;-55
2023/05/18 07:44:21;;;;;;;11.65;10.95;;;;;;;;;;4992551;28;20056;-54
2023/05/18 07:46:47;;;;;;;12.35;11.40;;;;;;;;;;4998918;28;20041;-54
2023/05/18 07:49:12;;;;;;;12.35;11.65;;;;;;;;;;4998446;28;20052;-53
2023/05/18 07:51:38;;;;;;;11.38;10.68;;;;;;;;;;5001410;28;20120;-53
2023/05/18 07:54:04;;;;;;;11.02;10.35;;;;;;;;;;4995027;28;20132;-54
2023/05/18 07:56:29;;;;;;;12.05;11.35;;;;;;;;;;4999447;28;20705;-54
2023/05/18 07:58:54;;;;;;;12.02;11.23;;;;;;;;;;4996003;28;20030;-53
2023/05/18 08:01:21;;;;;;;10.95;10.25;;;;;;;;;;4998633;28;20026;-54
2023/05/18 08:03:46;;;;;;;11.43;10.73;;;;;;;;;;4995915;28;20038;-53
2023/05/18 08:06:11;;;;;;;11.65;10.95;;;;;;;;;;4996492;28;20036;-54
2023/05/18 08:08:37;;;;;;;12.80;12.02;;;;;;;;;;4996481;28;20038;-55
2023/05/18 08:11:03;;;;;;;13.43;12.63;;;;;;;;;;4999021;28;20112;-54
2023/05/18 08:13:29;;;;;;;12.50;11.80;;;;;;;;;;4997788;28;20045;-55
2023/05/18 08:15:54;;;;;;;11.90;11.20;;;;;;;;;;4995695;28;20131;-55
2023/05/18 08:18:21;;;;;;;13.07;12.10;;;;;;;;;;4996664;28;20029;-55
2023/05/18 08:20:48;;;;;;;14.38;13.50;;;;;;;;;;4996776;28;20030;-54
2023/05/18 08:23:14;;;;;;;13.00;12.20;;;;;;;;;;4995766;28;20440;-54
2023/05/18 08:25:39;;;;;;;12.90;12.13;;;;;;;;;;4988185;28;20033;-53
2023/05/18 08:28:04;;;;;;;14.63;13.82;;;;;;;;;;4995588;28;20040;-57
2023/05/18 08:30:30;;;;;;;14.07;13.27;;;;;;;;;;4999719;28;20119;-53
2023/05/18 08:32:55;;;;;;;15.27;14.38;;;;;;;;;;4995215;28;20034;-56
2023/05/18 08:35:21;;;;;;;13.35;12.55;;;;;;;;;;4997918;28;20038;-56
2023/05/18 08:37:46;;;;;;;15.85;14.35;;;;;;;;;;4995199;28;20124;-54
2023/05/18 08:40:12;;;;;;;15.80;14.90;;;;;;;;;;4990619;28;20030;-55
2023/05/18 08:43:01;;;;;;;14.10;13.25;;;;;;;;;;4979154;28;20104;-55
2023/05/18 08:45:38;;;;;;;14.55;13.75;;;;;;;;;;4998849;28;20670;-54
2023/05/18 08:48:04;;;;;;;15.73;14.75;;;;;;;;;;4997149;28;20030;-56
2023/05/18 08:50:31;;;;;;;15.52;14.63;;;;;;;;;;4998974;28;20026;-54
2023/05/18 08:53:01;;;;;;;15.20;14.30;;;;;;;;;;4993902;28;20062;-54
2023/05/18 08:55:27;;;;;;;14.85;14.05;;;;;;;;;;4996098;28;20037;-54
2023/05/18 08:57:58;;;;;;;14.80;14.00;;;;;;;;;;4993734;28;20046;-56
2023/05/18 09:00:24;;;;;;;;;;;;;;;;;;4997920;28;20033;-57
2023/05/18 09:02:50;;;;;;;15.32;14.43;;;;;;;;;;4997050;28;19918;-55
2023/05/18 09:05:16;;;;;;;15.43;14.43;;;;;;;;;;4996882;28;20030;-56
2023/05/18 09:07:42;;;;;;;14.50;13.70;;;;;;;;;;4996006;28;20047;-57
2023/05/18 09:10:12;;;;;;;13.27;12.48;;;;;;;;;;4995023;28;20041;-57
2023/05/18 09:12:40;;;;;;;14.95;13.05;;;;;;;;;;4995142;28;20487;-55
2023/05/18 09:15:08;;;;;;;13.80;13.00;;;;;;;;;;4994571;28;20465;-54
2023/05/18 09:17:34;;;;;;;14.98;14.13;;;;;;;;;;4997429;28;20038;-54
2023/05/18 09:19:59;;;;;;;15.18;14.27;;;;;;;;;;4997049;28;20478;-56
2023/05/18 09:22:25;;;;;;;14.73;13.90;;;;;;;;;;5000191;28;20049;-55
2023/05/18 09:24:51;;;;;;;15.63;14.18;;;;;;;;;;4997617;28;20789;-57
2023/05/18 09:27:16;;;;;;;15.00;14.10;;;;;;;;;;4994871;28;20069;-57
2023/05/18 09:29:55;;;;;;;16.15;15.10;;;;;;;;;;4997694;28;20040;-57
2023/05/18 09:32:21;;;;;;;15.13;14.23;;;;;;;;;;4999585;28;20033;-57
2023/05/18 09:34:47;;;;;;;15.32;14.43;;;;;;;;;;4999037;28;20038;-57
2023/05/18 09:37:17;;;;;;;16.33;15.43;;;;;;;;;;4995823;28;20051;-56
2023/05/18 09:39:43;;;;;;;14.98;14.15;;;;;;;;;;4991305;28;20036;-56
2023/05/18 09:42:08;;;;;;;16.50;15.60;;;;;;;;;;4993093;28;20033;-57
2023/05/18 09:44:34;;;;;;;17.20;16.20;;;;;;;;;;4997351;28;20120;-57
2023/05/18 09:47:00;;;;;;;15.43;14.40;;;;;;;;;;4999549;28;20187;-56
2023/05/18 09:49:28;;;;;;;15.55;14.40;;;;;;;;;;4997209;28;20026;-57
2023/05/18 09:51:54;;;;;;;16.73;15.82;;;;;;;;;;4993077;28;20042;-56
2023/05/18 09:54:19;;;;;;;15.02;14.13;;;;;;;;;;4995548;28;20040;-54
2023/05/18 09:56:45;;;;;;;14.43;13.63;;;;;;;;;;4996195;28;20046;-55
2023/05/18 09:59:13;;;;;;;21.30;20.10;;;;;;;;;;4997835;28;20080;-56
2023/05/18 10:02:04;;;;;;;23.05;21.85;;;;;;;;;;4995639;28;20219;-57
2023/05/18 10:04:42;;;;;;;24.70;23.20;;;;;;;;;;4996527;28;20040;-57
2023/05/18 10:07:10;;;;;;;18.55;17.55;;;;;;;;;;4997150;28;20064;-54
2023/05/18 10:09:39;;;;;;;24.05;22.75;;;;;;;;;;4997357;28;20064;-53
2023/05/18 10:12:15;;;;;;;28.15;26.65;;;;;;;;;;4997017;28;20425;-57
2023/05/18 10:14:43;;;;;;;28.63;27.13;;;;;;;;;;4995888;28;20587;-56
2023/05/18 10:17:12;;;;;;;29.40;27.85;;;;;;;;;;4995942;28;20030;-56
2023/05/18 10:19:40;;;;;;;28.27;26.77;;;;;;;;;;4999600;28;20030;-56
2023/05/18 10:22:07;;;;;;;24.45;23.08;;;;;;;;;;4999149;28;20034;-56
2023/05/18 10:24:37;;;;;;;25.92;24.55;;;;;;;;;;4996979;28;20030;-57
2023/05/18 10:27:06;;;;;;;26.02;24.33;;;;;;;;;;4996461;28;20033;-56
2023/05/18 10:29:33;;;;;;;27.00;25.58;;;;;;;;;;4996788;28;20037;-60
2023/05/18 10:32:02;;;;;;;28.13;25.90;;;;;;;;;;4998223;28;20052;-60
2023/05/18 10:34:31;;;;;;;24.35;23.00;;;;;;;;;;4999658;28;20033;-60
2023/05/18 10:36:59;;;;;;;22.63;21.43;;;;;;;;;;4994503;28;20062;-61
2023/05/18 10:39:25;;;;;;;28.95;27.45;;;;;;;;;;5000506;28;20137;-60
2023/05/18 10:41:53;;;;;;;24.40;22.80;;;;;;;;;;4998188;28;20193;-60
2023/05/18 10:44:20;;;;;;;25.52;24.13;;;;;;;;;;4998235;28;20148;-60
2023/05/18 10:46:46;;;;;;;26.38;24.98;;;;;;;;;;4996568;28;20034;-60
2023/05/18 10:49:15;;;;;;;23.50;21.58;;;;;;;;;;5000180;28;20038;-61
2023/05/18 10:51:45;;;;;;;28.63;26.83;;;;;;;;;;4999177;28;20476;-60
2023/05/18 10:54:13;;;;;;;24.65;23.25;;;;;;;;;;4997295;28;20116;-60
2023/05/18 10:56:44;;;;;;;26.08;24.48;;;;;;;;;;4999248;28;20604;-60
2023/05/18 10:59:11;;;;;;;32.97;31.08;;;;;;;;;;5001058;28;20041;-60
2023/05/18 11:01:40;;;;;;;21.38;20.17;;;;;;;;;;4998251;28;20113;-60
2023/05/18 11:04:05;;;;;;;29.58;28.05;;;;;;;;;;4998591;28;20600;-60
2023/05/18 11:06:33;;;;;;;21.30;20.15;;;;;;;;;;4995473;28;20100;-60
2023/05/18 11:09:00;;;;;;;33.58;31.83;;;;;;;;;;4998292;28;20104;-60
2023/05/18 11:11:28;;;;;;;30.45;28.83;;;;;;;;;;4998309;28;20030;-60
2023/05/18 11:13:59;;;;;;;21.80;20.60;;;;;;;;;;5000010;28;20069;-61
2023/05/18 11:16:31;;;;;;;;;;;;;;;;;;4997198;28;20069;-60
2023/05/18 11:19:04;;;;;;;21.45;20.25;;;;;;;;;;4995330;28;19917;-60
2023/05/18 11:21:50;;;;;;;22.38;21.17;;;;;;;;;;4998175;28;20037;-60
2023/05/18 11:24:22;;;;;;;21.95;20.60;;;;;;;;;;4996875;28;20030;-60
2023/05/18 11:27:11;;;;;;;22.33;21.13;;;;;;;;;;4998683;28;20368;-60
2023/05/18 11:29:41;;;;;;;24.98;23.65;;;;;;;;;;4992273;28;20048;-61
2023/05/18 11:32:28;;;;;;;27.70;26.20;;;;;;;;;;4998928;28;20033;-61
2023/05/18 11:34:54;;;;;;;25.75;24.35;;;;;;;;;;4996091;28;20053;-61
2023/05/18 11:37:38;;;;;;;26.80;25.40;;;;;;;;;;4996576;28;20122;-61
2023/05/18 11:40:42;;;;;;;26.38;24.95;;;;;;;;;;4998748;28;20046;-61
2023/05/18 11:43:07;;;;;;;24.00;22.70;;;;;;;;;;4995913;28;20438;-61
2023/05/18 11:45:33;;;;;;;26.98;25.13;;;;;;;;;;4994573;28;20087;-62
2023/05/18 11:48:01;;;;;;;25.60;24.23;;;;;;;;;;4997365;28;20045;-62
2023/05/18 11:50:29;;;;;;;20.83;19.73;;;;;;;;;;4995641;28;20033;-62
2023/05/18 11:52:56;;;;;;;23.38;22.17;;;;;;;;;;4999820;28;20030;-62
2023/05/18 11:55:21;;;;;;;27.08;25.58;;;;;;;;;;4999852;28;20123;-58
2023/05/18 11:57:51;;;;;;;23.40;22.15;;;;;;;;;;4996682;28;20116;-57
2023/05/18 12:00:18;;;;;;;22.23;21.02;;;;;;;;;;4996178;28;20092;-62
2023/05/18 12:02:45;;;;;;;25.60;24.20;;;;;;;;;;4992065;28;20046;-62
2023/05/18 12:05:10;;;;;;;25.35;24.00;;;;;;;;;;4994674;28;20037;-62
2023/05/18 12:07:37;;;;;;;22.63;21.42;;;;;;;;;;4998906;28;20683;-62
2023/05/18 12:10:05;;;;;;;24.75;23.35;;;;;;;;;;4996582;28;20062;-56
2023/05/18 12:12:32;;;;;;;26.75;25.35;;;;;;;;;;4993905;28;20042;-57
2023/05/18 12:15:02;;;;;;;22.55;21.35;;;;;;;;;;4998593;28;20072;-56
2023/05/18 12:17:41;;;;;;;23.08;21.88;;;;;;;;;;4998686;28;20031;-57
2023/05/18 12:20:11;;;;;;;23.38;22.15;;;;;;;;;;4993669;28;20035;-58
2023/05/18 12:22:42;;;;;;;23.10;21.85;;;;;;;;;;4994591;28;20121;-57
2023/05/18 12:25:08;;;;;;;23.15;21.15;;;;;;;;;;4995070;28;20042;-56
2023/05/18 12:27:42;;;;;;;24.98;23.58;;;;;;;;;;4997892;28;20674;-58
2023/05/18 12:30:15;;;;;;;25.95;24.55;;;;;;;;;;4997536;28;20100;-58
2023/05/18 12:32:45;;;;;;;21.90;20.70;;;;;;;;;;4998846;28;20034;-58
2023/05/18 12:35:11;;;;;;;23.40;22.17;;;;;;;;;;4996593;28;20459;-58
2023/05/18 12:37:43;;;;;;;25.65;24.20;;;;;;;;;;4997263;28;20137;-57
2023/05/18 12:40:13;;;;;;;22.67;21.48;;;;;;;;;;4995558;28;20464;-57
2023/05/18 12:42:39;;;;;;;25.05;23.63;;;;;;;;;;4996290;28;20036;-57
2023/05/18 12:45:05;;;;;;;23.65;22.35;;;;;;;;;;4996548;28;20038;-57
2023/05/18 12:47:32;;;;;;;24.73;23.08;;;;;;;;;;4994466;28;20030;-57
2023/05/18 12:50:01;;;;;;;25.63;24.23;;;;;;;;;;4995637;28;20037;-56
2023/05/18 12:52:26;;;;;;;24.63;23.33;;;;;;;;;;4996593;28;20037;-56
2023/05/18 12:54:59;;;;;;;23.88;22.60;;;;;;;;;;4992941;28;20538;-57
2023/05/18 12:57:26;;;;;;;21.20;20.10;;;;;;;;;;4995090;28;20379;-56
2023/05/18 12:59:53;;;;;;;25.80;24.17;;;;;;;;;;4995293;28;20065;-57
2023/05/18 13:02:35;;;;;;;26.20;24.67;;;;;;;;;;4992738;28;20029;-58
2023/05/18 13:05:09;;;;;;;27.92;24.35;;;;;;;;;;4995044;28;20042;-58
2023/05/18 13:07:42;;;;;;;25.58;24.20;;;;;;;;;;4995474;28;20045;-57
2023/05/18 13:10:09;;;;;;;26.33;24.95;;;;;;;;;;4995946;28;20029;-57
2023/05/18 13:12:48;;;;;;;29.38;27.85;;;;;;;;;;4981062;28;20040;-58
2023/05/18 13:15:20;;;;;;;29.17;27.48;;;;;;;;;;4995941;28;20040;-58
2023/05/18 13:18:01;;;;;;;30.17;28.58;;;;;;;;;;4995298;28;20037;-58
2023/05/18 13:20:32;;;;;;;25.65;24.30;;;;;;;;;;4995544;28;20042;-57
2023/05/18 13:23:01;;;;;;;30.92;29.33;;;;;;;;;;4981752;28;20620;-59
2023/05/18 13:25:26;;;;;;;32.63;30.92;;;;;;;;;;4997724;28;20100;-58
2023/05/18 13:27:53;;;;;;;32.13;30.45;;;;;;;;;;4997255;28;20041;-59
2023/05/18 13:30:20;;;;;;;34.75;32.75;;;;;;;;;;4996430;28;20021;-59
2023/05/18 13:32:45;;;;;;;32.35;30.63;;;;;;;;;;4994557;28;20056;-59
2023/05/18 13:35:12;;;;;;;31.45;29.80;;;;;;;;;;4993454;28;20034;-58
2023/05/18 13:37:38;;;;;;;32.42;30.75;;;;;;;;;;4976907;28;20048;-59
2023/05/18 13:40:04;;;;;;;33.65;31.88;;;;;;;;;;4995801;28;20126;-59
2023/05/18 13:42:30;;;;;;;28.48;27.00;;;;;;;;;;4998722;28;20048;-58
2023/05/18 13:44:55;;;;;;;33.00;31.25;;;;;;;;;;4996057;28;20045;-59
2023/05/18 13:47:21;;;;;;;29.67;28.13;;;;;;;;;;4992821;28;20025;-57
2023/05/18 13:49:46;;;;;;;35.28;33.42;;;;;;;;;;4978123;28;20117;-57
2023/05/18 13:52:12;;;;;;;35.97;34.10;;;;;;;;;;4997035;28;20034;-59
2023/05/18 13:54:37;;;;;;;36.50;34.42;;;;;;;;;;4994199;28;20049;-58
2023/05/18 13:57:02;;;;;;;36.72;34.53;;;;;;;;;;4992678;28;20038;-58
2023/05/18 13:59:28;;;;;;;36.63;34.67;;;;;;;;;;4996258;28;20034;-56
2023/05/18 14:01:53;;;;;;;30.98;29.35;;;;;;;;;;4997147;28;20045;-57
2023/05/18 14:04:19;;;;;;;30.85;29.25;;;;;;;;;;5001420;28;20037;-58
2023/05/18 14:06:44;;;;;;;29.65;28.10;;;;;;;;;;4999936;28;20049;-58
2023/05/18 14:09:09;;;;;;;36.08;34.20;;;;;;;;;;5001673;28;20571;-58
2023/05/18 14:11:37;;;;;;;33.83;32.08;;;;;;;;;;4999282;28;20611;-56
2023/05/18 14:14:02;;;;;;;35.78;33.92;;;;;;;;;;4996308;28;20034;-58
2023/05/18 14:16:28;;;;;;;34.05;32.10;;;;;;;;;;4998449;28;20557;-58
2023/05/18 14:18:54;;;;;;;34.50;32.67;;;;;;;;;;5001382;28;20103;-58
2023/05/18 14:21:19;;;;;;;29.77;27.77;;;;;;;;;;4999221;28;20034;-55
2023/05/18 14:23:46;;;;;;;24.27;22.98;;;;;;;;;;4999670;28;20183;-57